Time;durP1;ratioP1;P1;durP2;ratioP2;P2;SDS_P1;SDS_P2;PMS_P1;PMS_P2;Temp;Humidity;BMP_temperature;BMP_pressure;BME280_temperature;BME280_humidity;BME280_pressure;Samples;Min_cycle;Max_cycle;Signal;HPM_P1;HPM_P2
2023/09/23 00:01:38;;;;;;;12.25;3.70;;;26.30;62.80;;;;;;7674212;22;80153;-57
2023/09/23 00:04:39;;;;;;;9.75;4.43;;;26.30;63.40;;;;;;7674885;22;81067;-56
2023/09/23 00:07:40;;;;;;;8.70;3.90;;;26.30;62.90;;;;;;7678944;22;81703;-55
2023/09/23 00:10:40;;;;;;;8.52;4.38;;;26.30;62.90;;;;;;7678740;22;80394;-56
2023/09/23 00:13:41;;;;;;;9.35;4.20;;;26.30;63.10;;;;;;7650958;22;80999;-56
2023/09/23 00:16:42;;;;;;;11.43;4.25;;;26.30;63.10;;;;;;7678427;22;80966;-56
2023/09/23 00:19:43;;;;;;;9.35;4.22;;;26.30;63.40;;;;;;7679167;22;80708;-57
2023/09/23 00:22:45;;;;;;;9.52;4.05;;;26.30;63.30;;;;;;7627480;22;80651;-55
2023/09/23 00:25:46;;;;;;;8.25;3.95;;;26.40;63.40;;;;;;7652763;22;83146;-56
2023/09/23 00:28:47;;;;;;;12.50;4.43;;;26.30;63.50;;;;;;7678659;22;80354;-55
2023/09/23 00:31:47;;;;;;;9.50;3.90;;;26.40;63.70;;;;;;7679592;22;80269;-55
2023/09/23 00:34:48;;;;;;;5.88;4.00;;;26.30;63.80;;;;;;7680032;22;80757;-55
2023/09/23 00:37:49;;;;;;;7.60;4.18;;;26.30;63.90;;;;;;7678879;22;80794;-55
2023/09/23 00:40:51;;;;;;;9.40;3.50;;;26.30;63.90;;;;;;7651966;22;83289;-56
2023/09/23 00:43:53;;;;;;;6.30;3.50;;;26.30;64.10;;;;;;7652277;22;81731;-54
2023/09/23 00:46:55;;;;;;;6.82;4.10;;;26.30;64.10;;;;;;7679668;22;80323;-56
2023/09/23 00:49:55;;;;;;;7.25;4.18;;;26.30;64.10;;;;;;7652387;22;83329;-56
2023/09/23 00:52:56;;;;;;;7.55;3.72;;;26.40;64.20;;;;;;7679936;22;79940;-56
2023/09/23 00:55:57;;;;;;;11.43;4.35;;;26.40;64.30;;;;;;7678843;22;80811;-55
2023/09/23 00:58:57;;;;;;;10.30;4.60;;;26.40;64.50;;;;;;7679386;22;82420;-55
2023/09/23 01:01:58;;;;;;;8.35;3.42;;;26.40;64.80;;;;;;7678786;22;80267;-54
2023/09/23 01:04:58;;;;;;;6.15;3.40;;;26.30;64.80;;;;;;7679877;22;80520;-56
2023/09/23 01:08:11;;;;;;;6.78;3.17;;;26.40;65.00;;;;;;7679477;22;81265;-56
2023/09/23 01:11:12;;;;;;;17.65;4.20;;;26.30;65.10;;;;;;7679620;22;81191;-57
2023/09/23 01:14:12;;;;;;;7.70;3.22;;;26.30;65.10;;;;;;7626914;22;81772;-58
2023/09/23 01:17:15;;;;;;;5.30;3.00;;;26.30;65.10;;;;;;7652061;22;82979;-56
2023/09/23 01:20:16;;;;;;;6.88;3.17;;;26.40;65.10;;;;;;7655514;22;81927;-63
2023/09/23 01:23:17;;;;;;;6.93;3.15;;;26.30;65.00;;;;;;7677572;22;83535;-63
2023/09/23 01:26:18;;;;;;;6.75;3.33;;;26.30;65.10;;;;;;7679334;22;80438;-64
2023/09/23 01:29:23;;;;;;;5.85;3.08;;;26.30;65.10;;;;;;7679724;22;80340;-64
2023/09/23 01:32:23;;;;;;;4.30;2.95;;;26.30;65.20;;;;;;7680538;22;80589;-64
2023/09/23 01:35:24;;;;;;;8.18;3.65;;;26.30;65.30;;;;;;7680849;22;80802;-64
2023/09/23 01:38:24;;;;;;;10.52;3.47;;;26.30;65.40;;;;;;7680594;22;80884;-64
2023/09/23 01:41:25;;;;;;;5.70;3.53;;;26.30;65.50;;;;;;7678227;22;80414;-62
2023/09/23 01:44:26;;;;;;;6.22;3.50;;;26.30;65.50;;;;;;7678425;22;80214;-65
2023/09/23 01:47:26;;;;;;;6.00;3.35;;;26.30;65.50;;;;;;7679635;22;80562;-64
2023/09/23 01:50:28;;;;;;;4.88;3.30;;;26.30;65.50;;;;;;7679444;22;80157;-66
2023/09/23 01:53:28;;;;;;;6.03;3.08;;;26.30;65.60;;;;;;7678242;22;81749;-63
2023/09/23 01:56:30;;;;;;;6.50;3.47;;;26.30;65.70;;;;;;7674667;22;83042;-64
2023/09/23 01:59:32;;;;;;;8.00;3.03;;;26.30;65.70;;;;;;7662019;22;83033;-55
2023/09/23 02:02:33;;;;;;;7.78;3.53;;;26.30;65.70;;;;;;7672816;22;87767;-55
2023/09/23 02:05:33;;;;;;;3.90;3.05;;;26.30;65.90;;;;;;7675191;22;82868;-55
2023/09/23 02:08:37;;;;;;;10.00;3.22;;;26.30;65.80;;;;;;7676249;22;83273;-55
2023/09/23 02:11:37;;;;;;;6.18;3.30;;;26.30;66.40;;;;;;7678769;22;80253;-54
2023/09/23 02:14:38;;;;;;;7.15;3.53;;;26.30;65.90;;;;;;7677010;22;82943;-65
2023/09/23 02:17:38;;;;;;;3.63;2.45;;;26.30;65.70;;;;;;7676388;22;80621;-55
2023/09/23 02:20:40;;;;;;;7.25;3.40;;;26.30;65.90;;;;;;7675952;22;83315;-54
2023/09/23 02:23:40;;;;;;;5.65;3.10;;;26.30;66.00;;;;;;7678117;22;80167;-54
2023/09/23 02:26:41;;;;;;;5.70;3.30;;;26.30;66.00;;;;;;7678040;22;80600;-54
2023/09/23 02:29:41;;;;;;;6.13;3.20;;;26.30;66.10;;;;;;7679110;22;80548;-55
2023/09/23 02:32:42;;;;;;;5.72;2.45;;;26.30;66.20;;;;;;7676763;22;81452;-55
2023/09/23 02:35:42;;;;;;;6.68;3.28;;;26.30;66.10;;;;;;7679151;22;81340;-56
2023/09/23 02:38:43;;;;;;;7.80;3.30;;;26.30;66.00;;;;;;7675747;22;81502;-56
2023/09/23 02:41:46;;;;;;;6.43;3.80;;;26.30;65.80;;;;;;7677340;22;80417;-56
2023/09/23 02:44:47;;;;;;;7.93;3.00;;;26.40;65.80;;;;;;7675088;22;83297;-57
2023/09/23 02:47:48;;;;;;;6.22;2.65;;;26.30;65.80;;;;;;7677626;22;80363;-57
2023/09/23 02:50:48;;;;;;;5.05;2.83;;;26.30;65.80;;;;;;7676447;22;83356;-56
2023/09/23 02:53:49;;;;;;;6.00;3.17;;;26.30;66.00;;;;;;7679158;22;81799;-57
2023/09/23 02:56:50;;;;;;;5.60;2.95;;;26.30;65.90;;;;;;7676955;22;81282;-56
2023/09/23 02:59:56;;;;;;;5.65;3.25;;;26.30;65.90;;;;;;7651382;22;81452;-56
2023/09/23 03:02:57;;;;;;;5.80;3.28;;;26.40;66.00;;;;;;7677617;22;81461;-56
2023/09/23 03:06:02;;;;;;;5.55;3.50;;;26.40;65.90;;;;;;7675957;22;81608;-55
2023/09/23 03:09:03;;;;;;;7.68;3.55;;;26.30;65.90;;;;;;7679231;22;80302;-64
2023/09/23 03:12:04;;;;;;;9.38;3.67;;;26.30;66.00;;;;;;7677327;22;83425;-68
2023/09/23 03:15:14;;;;;;;7.07;3.47;;;26.30;66.30;;;;;;7679583;22;81382;-68
2023/09/23 03:18:15;;;;;;;7.10;3.90;;;26.30;66.30;;;;;;7678519;22;80320;-64
2023/09/23 03:21:15;;;;;;;6.78;3.80;;;26.30;66.30;;;;;;7676074;22;80807;-67
2023/09/23 03:24:16;;;;;;;7.80;4.10;;;26.30;66.30;;;;;;7647082;22;80512;-66
2023/09/23 03:27:16;;;;;;;11.10;4.68;;;26.30;66.20;;;;;;7647679;22;82778;-64
2023/09/23 03:30:17;;;;;;;7.97;4.03;;;26.30;66.30;;;;;;7646944;22;81673;-55
2023/09/23 03:33:18;;;;;;;7.32;3.65;;;26.30;66.50;;;;;;7675391;22;81084;-52
2023/09/23 03:36:20;;;;;;;7.32;4.30;;;26.30;66.60;;;;;;7645890;22;82972;-50
2023/09/23 03:39:21;;;;;;;6.97;4.50;;;26.30;66.60;;;;;;7649729;22;83262;-52
2023/09/23 03:42:22;;;;;;;10.07;4.50;;;26.30;66.60;;;;;;7678019;22;80374;-52
2023/09/23 03:45:22;;;;;;;7.05;4.57;;;26.30;66.50;;;;;;7652041;22;83230;-53
2023/09/23 03:48:23;;;;;;;8.63;4.63;;;26.30;66.70;;;;;;7653059;22;82557;-53
2023/09/23 03:51:24;;;;;;;9.32;5.15;;;26.20;66.60;;;;;;7678479;22;81162;-52
2023/09/23 03:54:24;;;;;;;12.90;5.88;;;26.30;66.60;;;;;;7649376;22;81311;-54
2023/09/23 03:57:25;;;;;;;7.07;4.80;;;26.20;66.70;;;;;;7648630;22;83500;-54
2023/09/23 04:00:27;;;;;;;8.70;5.32;;;26.20;66.70;;;;;;7647970;22;81917;-56
2023/09/23 04:03:27;;;;;;;8.35;5.40;;;26.20;66.70;;;;;;7676521;22;80693;-55
2023/09/23 04:06:28;;;;;;;10.90;5.85;;;26.20;66.60;;;;;;7676055;22;80671;-55
2023/09/23 04:09:29;;;;;;;5.88;4.65;;;26.20;66.70;;;;;;7676725;22;80416;-61
2023/09/23 04:12:29;;;;;;;9.60;5.35;;;26.30;66.60;;;;;;7663297;22;81017;-62
2023/09/23 04:15:30;;;;;;;7.63;5.40;;;26.30;66.50;;;;;;7636964;22;81024;-60
2023/09/23 04:18:31;;;;;;;6.40;5.28;;;26.20;66.60;;;;;;7672980;22;81108;-61
2023/09/23 04:21:31;;;;;;;10.93;5.43;;;26.30;66.30;;;;;;7676668;22;80374;-61
2023/09/23 04:24:32;;;;;;;7.47;5.72;;;26.20;66.10;;;;;;7679245;22;80210;-60
2023/09/23 04:27:32;;;;;;;10.45;5.95;;;26.30;66.10;;;;;;7679785;22;80481;-60
2023/09/23 04:30:34;;;;;;;7.70;5.35;;;26.30;66.30;;;;;;7680181;22;80218;-62
2023/09/23 04:33:35;;;;;;;7.55;5.80;;;26.20;66.00;;;;;;7653879;22;81254;-63
2023/09/23 04:36:36;;;;;;;7.32;5.65;;;26.20;66.80;;;;;;7680371;22;80108;-64
2023/09/23 04:39:36;;;;;;;8.30;5.88;;;26.20;66.30;;;;;;7679927;22;81430;-64
2023/09/23 04:42:37;;;;;;;9.60;5.97;;;26.30;66.30;;;;;;7675101;22;80899;-53
2023/09/23 04:45:37;;;;;;;10.88;5.63;;;26.20;66.30;;;;;;7677854;22;80478;-57
2023/09/23 04:48:39;;;;;;;9.55;6.15;;;26.20;66.10;;;;;;7678925;22;81118;-56
2023/09/23 04:51:39;;;;;;;9.30;5.82;;;26.20;66.20;;;;;;7677307;22;81282;-56
2023/09/23 04:54:40;;;;;;;8.30;5.22;;;26.20;66.20;;;;;;7677071;22;81459;-57
2023/09/23 04:57:40;;;;;;;12.43;5.55;;;26.20;66.20;;;;;;7677198;22;80469;-56
2023/09/23 05:00:41;;;;;;;8.90;6.10;;;26.20;66.30;;;;;;7672936;22;80904;-56
2023/09/23 05:03:42;;;;;;;9.25;6.60;;;26.20;66.10;;;;;;7675805;22;80862;-57
2023/09/23 05:06:42;;;;;;;7.45;5.47;;;26.20;66.20;;;;;;7678011;22;83207;-57
2023/09/23 05:09:45;;;;;;;7.35;5.80;;;26.20;66.20;;;;;;7675860;22;80295;-55
2023/09/23 05:12:45;;;;;;;11.32;6.20;;;26.20;66.30;;;;;;7677571;22;80296;-56
2023/09/23 05:15:46;;;;;;;8.98;6.35;;;26.20;66.20;;;;;;7678771;22;80455;-57
2023/09/23 05:18:48;;;;;;;7.25;5.72;;;26.20;66.20;;;;;;7679424;22;79926;-56
2023/09/23 05:21:50;;;;;;;10.52;6.07;;;26.20;66.30;;;;;;7679358;22;80974;-60
2023/09/23 05:24:56;;;;;;;13.63;6.38;;;26.20;66.70;;;;;;7676293;22;80876;-61
2023/09/23 05:27:57;;;;;;;16.77;7.05;;;26.20;66.80;;;;;;7679272;22;81370;-59
2023/09/23 05:30:58;;;;;;;19.88;6.78;;;26.20;66.70;;;;;;7678944;22;80930;-59
2023/09/23 05:33:59;;;;;;;11.38;6.55;;;26.20;66.40;;;;;;7680307;22;80154;-59
2023/09/23 05:36:59;;;;;;;16.92;6.32;;;26.20;66.50;;;;;;7679406;22;81469;-67
2023/09/23 05:40:00;;;;;;;14.38;6.25;;;26.10;66.40;;;;;;7679578;22;81403;-58
2023/09/23 05:43:00;;;;;;;9.07;6.22;;;26.20;66.50;;;;;;7679625;22;80429;-59
2023/09/23 05:46:01;;;;;;;14.10;6.70;;;26.10;66.30;;;;;;7680706;22;79921;-59
2023/09/23 05:49:02;;;;;;;10.02;5.70;;;26.20;66.30;;;;;;7677238;22;80349;-64
2023/09/23 05:52:03;;;;;;;8.40;6.05;;;26.10;67.30;;;;;;7680199;22;81373;-61
2023/09/23 05:55:04;;;;;;;13.70;6.97;;;26.20;66.50;;;;;;7679818;22;80280;-70
2023/09/23 05:58:04;;;;;;;10.60;6.75;;;26.10;66.60;;;;;;7680403;22;80689;-62
2023/09/23 06:01:05;;;;;;;12.02;7.20;;;26.20;67.10;;;;;;7677242;22;81968;-63
2023/09/23 06:04:05;;;;;;;12.85;6.15;;;26.20;68.30;;;;;;7653568;22;80860;-60
2023/09/23 06:07:06;;;;;;;13.68;6.80;;;26.20;67.80;;;;;;7679010;22;80294;-63
2023/09/23 06:10:06;;;;;;;14.50;6.90;;;26.20;68.60;;;;;;7681071;22;80915;-61
2023/09/23 06:13:07;;;;;;;13.15;7.25;;;26.30;68.70;;;;;;7653664;22;80706;-61
2023/09/23 06:16:08;;;;;;;10.88;6.75;;;26.20;69.50;;;;;;7658147;22;80584;-61
2023/09/23 06:19:08;;;;;;;11.07;6.85;;;26.30;69.20;;;;;;7659754;22;80567;-61
2023/09/23 06:22:09;;;;;;;13.15;7.07;;;26.30;68.70;;;;;;7661169;22;81599;-61
2023/09/23 06:25:10;;;;;;;15.43;6.57;;;26.30;68.90;;;;;;7658492;22;81147;-63
2023/09/23 06:28:11;;;;;;;11.82;6.68;;;26.30;68.50;;;;;;7660639;22;80996;-62
2023/09/23 06:31:11;;;;;;;13.48;7.35;;;26.30;68.40;;;;;;7634200;22;81161;-56
2023/09/23 06:34:12;;;;;;;9.60;6.72;;;26.30;68.30;;;;;;7626141;22;80729;-62
2023/09/23 06:37:12;;;;;;;14.98;6.35;;;26.30;68.00;;;;;;7658023;22;80345;-61
2023/09/23 06:40:14;;;;;;;10.73;6.75;;;26.30;68.10;;;;;;7659928;22;80777;-62
2023/09/23 06:43:14;;;;;;;13.07;6.40;;;26.30;68.00;;;;;;7667503;22;80746;-61
2023/09/23 06:46:15;;;;;;;9.63;6.70;;;26.30;68.10;;;;;;7679875;22;80430;-60
2023/09/23 06:49:15;;;;;;;10.13;6.70;;;26.20;67.90;;;;;;7679297;22;80720;-58
2023/09/23 06:52:16;;;;;;;11.40;8.25;;;26.20;66.60;;;;;;7676230;22;80882;-53
2023/09/23 06:55:17;;;;;;;11.20;7.70;;;26.10;65.60;;;;;;7650961;22;81539;-53
2023/09/23 06:58:17;;;;;;;12.77;7.63;;;26.00;65.80;;;;;;7673541;22;82138;-56
2023/09/23 07:01:18;;;;;;;12.63;8.38;;;25.90;65.80;;;;;;7675518;22;80173;-55
2023/09/23 07:04:19;;;;;;;12.13;8.27;;;25.80;65.30;;;;;;7675416;22;81391;-55
2023/09/23 07:07:19;;;;;;;11.98;7.53;;;25.80;65.60;;;;;;7676893;22;80590;-54
2023/09/23 07:10:20;;;;;;;10.23;7.25;;;25.70;65.80;;;;;;7675805;22;81009;-53
2023/09/23 07:13:21;;;;;;;11.85;8.18;;;25.60;66.20;;;;;;7674349;22;80013;-49
2023/09/23 07:16:21;;;;;;;9.75;7.10;;;25.60;65.70;;;;;;7672424;22;80829;-51
2023/09/23 07:19:22;;;;;;;17.35;8.98;;;25.60;66.60;;;;;;7676307;22;80320;-51
2023/09/23 07:22:22;;;;;;;14.15;8.57;;;25.60;65.80;;;;;;7677382;22;82687;-54
2023/09/23 07:25:23;;;;;;;11.95;8.15;;;25.50;66.10;;;;;;7679256;22;80543;-48
2023/09/23 07:28:23;;;;;;;13.18;8.52;;;25.40;66.90;;;;;;7677635;22;80626;-54
2023/09/23 07:31:24;;;;;;;12.70;8.20;;;25.40;67.60;;;;;;7677903;22;81360;-51
2023/09/23 07:34:24;;;;;;;26.67;10.23;;;25.40;67.40;;;;;;7678488;22;80420;-50
2023/09/23 07:37:24;;;;;;;17.98;11.13;;;25.50;67.20;;;;;;7670881;22;83837;-52
2023/09/23 07:40:25;;;;;;;14.90;9.60;;;25.50;66.60;;;;;;7672153;22;83525;-51
2023/09/23 07:43:26;;;;;;;15.20;8.35;;;25.50;67.30;;;;;;7677049;22;83410;-53
2023/09/23 07:46:26;;;;;;;14.30;8.82;;;25.40;67.30;;;;;;7652151;22;82685;-53
2023/09/23 07:49:27;;;;;;;15.23;8.20;;;25.40;67.40;;;;;;7652670;22;81660;-53
2023/09/23 07:52:27;;;;;;;17.10;9.45;;;25.50;67.30;;;;;;7679844;22;80854;-56
2023/09/23 07:55:28;;;;;;;16.38;9.30;;;25.40;67.50;;;;;;7679416;22;80284;-51
2023/09/23 07:58:28;;;;;;;16.38;9.65;;;25.50;68.00;;;;;;7679432;22;80018;-47
2023/09/23 08:01:29;;;;;;;16.13;10.20;;;25.50;67.70;;;;;;7678578;22;81128;-52
2023/09/23 08:04:30;;;;;;;16.92;10.00;;;25.50;68.00;;;;;;7674480;22;84252;-57
2023/09/23 08:07:31;;;;;;;18.98;10.85;;;25.50;67.10;;;;;;7669609;22;84763;-53
2023/09/23 08:10:31;;;;;;;24.95;10.32;;;25.50;67.60;;;;;;7673825;22;83043;-54
2023/09/23 08:13:32;;;;;;;25.95;11.18;;;25.50;67.90;;;;;;7672514;22;82392;-55
2023/09/23 08:16:32;;;;;;;18.00;10.15;;;25.50;68.40;;;;;;7673645;22;83402;-54
2023/09/23 08:19:33;;;;;;;21.73;10.65;;;25.50;68.40;;;;;;7646137;22;83143;-53
2023/09/23 08:22:35;;;;;;;24.73;10.68;;;25.50;69.00;;;;;;7675076;22;83251;-59
2023/09/23 08:25:36;;;;;;;33.75;11.10;;;25.50;68.90;;;;;;7645321;22;84489;-57
2023/09/23 08:28:36;;;;;;;18.83;11.93;;;25.50;68.50;;;;;;7670565;22;83036;-57
2023/09/23 08:31:37;;;;;;;20.38;11.77;;;25.50;67.50;;;;;;7671553;22;84564;-57
2023/09/23 08:34:37;;;;;;;19.30;11.65;;;25.50;68.10;;;;;;7671865;22;83348;-57
2023/09/23 08:37:38;;;;;;;16.58;11.30;;;25.40;68.50;;;;;;7671453;22;83870;-55
2023/09/23 08:40:38;;;;;;;22.15;11.98;;;25.40;68.30;;;;;;7671117;22;83372;-52
2023/09/23 08:43:39;;;;;;;14.70;10.10;;;25.40;67.70;;;;;;7645323;22;85209;-58
2023/09/23 08:46:39;;;;;;;17.60;9.93;;;25.30;68.20;;;;;;7673081;22;83288;-55
2023/09/23 08:49:40;;;;;;;13.02;9.75;;;25.30;67.70;;;;;;7678344;22;82674;-58
2023/09/23 08:52:40;;;;;;;16.85;10.13;;;25.30;68.50;;;;;;7679928;22;80454;-56
2023/09/23 08:55:41;;;;;;;18.10;10.52;;;25.30;67.70;;;;;;7675986;22;83029;-57
2023/09/23 08:58:42;;;;;;;15.07;10.02;;;25.30;68.00;;;;;;7648374;22;82991;-60
2023/09/23 09:01:44;;;;;;;12.93;8.80;;;25.30;69.00;;;;;;7676971;22;83348;-65
2023/09/23 09:04:44;;;;;;;16.48;8.25;;;25.30;68.80;;;;;;7680514;22;83562;-66
2023/09/23 09:07:45;;;;;;;10.27;6.78;;;25.20;67.50;;;;;;7681893;22;80585;-64
2023/09/23 09:10:46;;;;;;;9.20;6.63;;;25.10;68.90;;;;;;7681547;22;80964;-66
2023/09/23 09:13:47;;;;;;;7.53;4.82;;;25.10;68.10;;;;;;7680502;22;80389;-66
2023/09/23 09:16:47;;;;;;;6.43;5.03;;;25.10;68.80;;;;;;7680806;22;80311;-65
2023/09/23 09:19:49;;;;;;;6.45;5.05;;;25.10;68.80;;;;;;7681264;22;80789;-52
2023/09/23 09:22:49;;;;;;;4.63;3.70;;;25.10;68.50;;;;;;7652676;22;81367;-47
2023/09/23 09:25:50;;;;;;;5.50;3.72;;;25.00;68.90;;;;;;7679930;22;80140;-53
2023/09/23 09:28:51;;;;;;;7.47;3.63;;;25.10;68.70;;;;;;7652195;22;82191;-53
2023/09/23 09:31:51;;;;;;;5.10;3.90;;;25.10;69.40;;;;;;7680875;22;80345;-49
2023/09/23 09:34:52;;;;;;;4.25;3.53;;;25.00;68.50;;;;;;7680112;22;80188;-57
2023/09/23 09:37:52;;;;;;;3.85;3.42;;;25.10;69.30;;;;;;7679596;22;87311;-57
2023/09/23 09:40:54;;;;;;;4.05;2.80;;;25.10;70.30;;;;;;7679687;22;80981;-57
2023/09/23 09:43:54;;;;;;;4.03;3.08;;;25.10;69.20;;;;;;7680418;22;80512;-57
2023/09/23 09:46:55;;;;;;;4.88;2.67;;;25.00;69.80;;;;;;7679227;22;81337;-56
2023/09/23 09:49:55;;;;;;;3.72;2.30;;;25.00;69.30;;;;;;7653892;22;81354;-57
2023/09/23 09:52:57;;;;;;;2.67;1.92;;;25.10;69.90;;;;;;7679416;22;80437;-57
2023/09/23 09:55:57;;;;;;;2.25;2.05;;;24.90;69.30;;;;;;7679462;22;80378;-52
2023/09/23 09:58:59;;;;;;;2.17;1.95;;;24.80;69.10;;;;;;7679686;22;79932;-53
2023/09/23 10:01:59;;;;;;;2.45;1.90;;;24.70;70.10;;;;;;7680113;22;81653;-52
2023/09/23 10:05:00;;;;;;;3.92;1.75;;;24.80;69.90;;;;;;7679983;22;81419;-54
2023/09/23 10:08:00;;;;;;;3.38;1.95;;;24.80;70.70;;;;;;7678786;22;80117;-52
2023/09/23 10:11:04;;;;;;;3.10;2.03;;;24.80;70.60;;;;;;7678892;22;81379;-64
2023/09/23 10:14:05;;;;;;;2.78;1.75;;;24.90;70.70;;;;;;7680872;22;81368;-60
2023/09/23 10:17:07;;;;;;;1.88;1.67;;;24.90;70.10;;;;;;7679883;22;80472;-60
2023/09/23 10:20:13;;;;;;;3.28;2.00;;;24.90;71.00;;;;;;7657916;22;82150;-60
2023/09/23 10:23:15;;;;;;;2.75;1.90;;;24.90;70.90;;;;;;7671613;22;81386;-57
2023/09/23 10:26:18;;;;;;;4.75;2.30;;;24.90;70.40;;;;;;7666887;22;80923;-59
2023/09/23 10:29:20;;;;;;;3.70;2.17;;;24.90;71.10;;;;;;7675174;22;80439;-60
2023/09/23 10:32:21;;;;;;;6.50;2.75;;;24.90;71.40;;;;;;7675936;22;80581;-67
2023/09/23 10:35:22;;;;;;;5.63;2.25;;;24.90;70.90;;;;;;7675734;22;80274;-54
2023/09/23 10:38:23;;;;;;;8.95;2.22;;;25.00;70.50;;;;;;7676120;22;80921;-51
2023/09/23 10:41:23;;;;;;;4.32;2.50;;;25.00;70.20;;;;;;7678419;22;80801;-51
2023/09/23 10:44:24;;;;;;;2.75;2.10;;;25.00;70.50;;;;;;7679080;22;80557;-54
2023/09/23 10:47:25;;;;;;;5.22;2.50;;;25.00;70.00;;;;;;7677182;22;83019;-55
2023/09/23 10:50:27;;;;;;;8.90;2.78;;;25.00;70.70;;;;;;7679410;22;80263;-55
2023/09/23 10:53:28;;;;;;;3.03;2.38;;;25.00;70.80;;;;;;7677256;22;80306;-52
2023/09/23 10:56:29;;;;;;;4.82;2.95;;;25.00;70.40;;;;;;7679238;22;80789;-54
2023/09/23 10:59:29;;;;;;;4.22;2.75;;;25.10;71.00;;;;;;7680596;22;80574;-51
2023/09/23 11:02:30;;;;;;;4.50;2.85;;;25.10;70.70;;;;;;7678315;22;81726;-52
2023/09/23 11:05:30;;;;;;;2.63;2.28;;;25.10;70.80;;;;;;7678841;22;80638;-55
2023/09/23 11:08:31;;;;;;;2.97;2.60;;;25.20;71.00;;;;;;7677751;22;80960;-49
2023/09/23 11:11:31;;;;;;;7.55;2.88;;;25.20;71.70;;;;;;7664682;22;81139;-53
2023/09/23 11:14:32;;;;;;;6.60;3.50;;;25.20;71.10;;;;;;7675396;22;82305;-56
2023/09/23 11:17:34;;;;;;;4.50;2.40;;;25.20;71.90;;;;;;7676122;22;85942;-59
2023/09/23 11:20:35;;;;;;;4.18;2.70;;;25.20;71.50;;;;;;7675227;22;80867;-52
2023/09/23 11:23:35;;;;;;;6.63;3.35;;;25.30;71.60;;;;;;7676684;22;82008;-47
2023/09/23 11:26:36;;;;;;;7.07;2.88;;;25.30;71.70;;;;;;7676753;22;81031;-58
2023/09/23 11:29:37;;;;;;;10.52;3.70;;;25.30;72.70;;;;;;7662509;22;81057;-56
2023/09/23 11:32:37;;;;;;;21.33;4.63;;;25.30;72.70;;;;;;7673394;22;81134;-55
2023/09/23 11:35:38;;;;;;;13.00;3.92;;;25.40;73.20;;;;;;7677270;22;80679;-55
2023/09/23 11:38:40;;;;;;;10.07;4.22;;;25.50;75.20;;;;;;7673907;22;81104;-56
2023/09/23 11:41:40;;;;;;;6.45;3.03;;;25.60;73.60;;;;;;7675359;22;81058;-57
2023/09/23 11:44:41;;;;;;;13.52;3.33;;;25.60;72.60;;;;;;7654195;22;80932;-60
2023/09/23 11:47:41;;;;;;;5.85;2.38;;;25.60;71.90;;;;;;7628542;22;82988;-65
2023/09/23 11:50:42;;;;;;;3.08;1.83;;;25.60;71.80;;;;;;7630245;22;80705;-64
2023/09/23 11:53:43;;;;;;;3.97;2.20;;;25.60;71.40;;;;;;7654762;22;81150;-70
2023/09/23 11:56:44;;;;;;;4.05;1.63;;;25.60;71.20;;;;;;7655731;22;81273;-69
2023/09/23 11:59:44;;;;;;;8.10;1.67;;;25.50;71.20;;;;;;7648786;22;80703;-65
2023/09/23 12:02:45;;;;;;;4.32;1.40;;;25.50;70.80;;;;;;7658056;22;81002;-67
2023/09/23 12:05:45;;;;;;;7.32;1.58;;;25.50;69.90;;;;;;7625308;22;83430;-67
2023/09/23 12:08:46;;;;;;;4.78;1.52;;;25.50;70.30;;;;;;7661652;22;81142;-66
2023/09/23 12:11:49;;;;;;;2.80;1.45;;;25.50;69.80;;;;;;7632384;22;80959;-66
2023/09/23 12:14:50;;;;;;;7.10;1.75;;;25.50;69.10;;;;;;7658711;22;80461;-65
2023/09/23 12:17:50;;;;;;;1.48;1.10;;;25.50;69.50;;;;;;7631940;22;80379;-66
2023/09/23 12:20:51;;;;;;;3.55;1.02;;;25.50;69.60;;;;;;7648087;22;80599;-67
2023/09/23 12:23:58;;;;;;;1.30;1.20;;;25.50;68.90;;;;;;7659204;22;80647;-61
2023/09/23 12:26:59;;;;;;;1.30;1.20;;;25.50;68.80;;;;;;7655868;22;80738;-61
2023/09/23 12:30:00;;;;;;;1.98;1.30;;;25.50;68.80;;;;;;7669128;22;81127;-60
2023/09/23 12:33:02;;;;;;;1.13;1.10;;;25.50;68.70;;;;;;7674022;22;80309;-62
2023/09/23 12:36:02;;;;;;;11.25;1.33;;;25.50;67.60;;;;;;7678321;22;80883;-66
2023/09/23 12:39:03;;;;;;;1.17;1.08;;;25.50;67.70;;;;;;7672850;22;80689;-61
2023/09/23 12:42:03;;;;;;;7.53;1.20;;;25.50;68.30;;;;;;7685097;22;80896;-71
2023/09/23 12:45:05;;;;;;;1.63;1.33;;;25.50;67.50;;;;;;7684014;22;80376;-77
2023/09/23 12:48:06;;;;;;;1.70;1.10;;;25.60;67.80;;;;;;7683099;22;80426;-72
2023/09/23 12:51:07;;;;;;;1.00;0.90;;;25.50;67.40;;;;;;7677190;22;81812;-70
2023/09/23 12:54:08;;;;;;;1.60;1.40;;;25.60;67.70;;;;;;7683049;22;80532;-71
2023/09/23 12:57:08;;;;;;;3.33;1.30;;;25.70;67.00;;;;;;7682545;22;80576;-61
2023/09/23 13:00:09;;;;;;;1.77;1.42;;;25.60;67.30;;;;;;7680313;22;80185;-73
2023/09/23 13:03:10;;;;;;;1.05;0.90;;;25.60;67.30;;;;;;7683135;22;80656;-75
2023/09/23 13:06:10;;;;;;;1.33;1.17;;;25.70;67.60;;;;;;7675852;22;80272;-71
2023/09/23 13:09:11;;;;;;;1.50;1.10;;;25.70;67.20;;;;;;7681592;22;80536;-71
2023/09/23 13:12:12;;;;;;;0.95;0.93;;;25.70;67.00;;;;;;7679449;22;81503;-74
2023/09/23 13:15:13;;;;;;;2.92;1.20;;;25.70;67.20;;;;;;7681259;22;81172;-68
2023/09/23 13:18:16;;;;;;;1.65;1.20;;;25.80;67.40;;;;;;7678427;22;80261;-49
2023/09/23 13:21:16;;;;;;;1.55;1.00;;;25.80;67.40;;;;;;7672560;22;80093;-55
2023/09/23 13:24:17;;;;;;;1.60;1.20;;;25.80;67.20;;;;;;7649449;22;80519;-55
2023/09/23 13:27:18;;;;;;;1.75;1.50;;;25.80;67.30;;;;;;7681173;22;80545;-53
2023/09/23 13:30:18;;;;;;;1.75;1.27;;;25.80;67.20;;;;;;7682508;22;80845;-57
2023/09/23 13:33:22;;;;;;;10.38;1.80;;;25.70;67.60;;;;;;7681476;22;80281;-57
2023/09/23 13:36:22;;;;;;;9.52;1.80;;;25.70;68.90;;;;;;7677987;22;81038;-64
2023/09/23 13:39:23;;;;;;;3.95;1.73;;;25.70;69.20;;;;;;7682649;22;80473;-68
2023/09/23 13:42:23;;;;;;;4.05;2.08;;;25.70;68.90;;;;;;7684092;22;80351;-69
2023/09/23 13:45:24;;;;;;;2.17;1.58;;;25.80;69.20;;;;;;7680708;22;80341;-72
2023/09/23 13:48:24;;;;;;;2.88;1.83;;;25.70;69.40;;;;;;7682309;22;81309;-72
2023/09/23 13:51:25;;;;;;;3.80;1.50;;;25.70;70.00;;;;;;7683201;22;80686;-72
2023/09/23 13:54:25;;;;;;;2.97;1.60;;;25.70;69.80;;;;;;7683795;22;80431;-61
2023/09/23 13:57:26;;;;;;;3.10;2.40;;;25.70;69.60;;;;;;7677904;22;80791;-62
2023/09/23 14:00:28;;;;;;;2.70;1.80;;;25.70;69.60;;;;;;7676397;22;80191;-62
2023/09/23 14:03:29;;;;;;;2.50;2.10;;;25.70;70.70;;;;;;7677376;22;80852;-61
2023/09/23 14:06:29;;;;;;;2.83;1.77;;;25.70;70.50;;;;;;7681915;22;80472;-63
2023/09/23 14:09:30;;;;;;;8.10;2.63;;;25.70;71.00;;;;;;7680609;22;81756;-62
2023/09/23 14:12:31;;;;;;;1.83;1.63;;;25.60;70.40;;;;;;7680956;22;81446;-50
2023/09/23 14:15:31;;;;;;;4.75;2.35;;;25.60;72.30;;;;;;7628766;22;81068;-54
2023/09/23 14:18:32;;;;;;;18.50;2.10;;;25.60;73.50;;;;;;7677587;22;80971;-55
2023/09/23 14:21:32;;;;;;;2.30;2.03;;;25.50;72.90;;;;;;7673416;22;80724;-56
2023/09/23 14:24:33;;;;;;;4.43;2.22;;;25.50;72.30;;;;;;7676242;22;80655;-55
2023/09/23 14:27:33;;;;;;;2.45;1.70;;;25.50;73.10;;;;;;7676711;22;80509;-55
2023/09/23 14:30:34;;;;;;;2.20;1.63;;;25.50;72.30;;;;;;7676144;22;81400;-50
2023/09/23 14:33:34;;;;;;;4.40;1.33;;;25.50;73.80;;;;;;7678087;22;80505;-67
2023/09/23 14:36:35;;;;;;;2.70;1.63;;;25.40;74.80;;;;;;7676199;22;81573;-66
2023/09/23 14:39:36;;;;;;;1.40;1.30;;;25.40;74.70;;;;;;7669728;22;80970;-67
2023/09/23 14:42:36;;;;;;;9.13;1.90;;;25.40;76.90;;;;;;7679038;22;80220;-66
2023/09/23 14:45:37;;;;;;;2.00;1.60;;;25.40;76.70;;;;;;7682543;22;80222;-69
2023/09/23 14:48:37;;;;;;;3.25;2.00;;;25.40;78.00;;;;;;7650824;22;81608;-62
2023/09/23 14:51:38;;;;;;;2.17;1.30;;;25.30;78.40;;;;;;7671630;22;81833;-57
2023/09/23 14:54:38;;;;;;;1.60;1.50;;;25.30;79.30;;;;;;7678272;22;80187;-57
2023/09/23 14:57:40;;;;;;;2.08;1.65;;;25.20;79.50;;;;;;7681497;22;81489;-56
2023/09/23 15:00:41;;;;;;;1.65;1.30;;;25.20;76.20;;;;;;7677432;22;80912;-55
2023/09/23 15:03:41;;;;;;;1.77;1.45;;;25.20;74.50;;;;;;7676693;22;80569;-56
2023/09/23 15:06:42;;;;;;;3.25;2.03;;;25.30;73.00;;;;;;7673089;22;81256;-49
2023/09/23 15:09:43;;;;;;;1.60;1.50;;;25.30;72.50;;;;;;7678676;22;80443;-48
2023/09/23 15:12:44;;;;;;;2.30;1.50;;;25.40;71.90;;;;;;7678182;22;80330;-47
2023/09/23 15:15:44;;;;;;;2.60;1.70;;;25.40;71.90;;;;;;7680672;22;81269;-47
2023/09/23 15:18:45;;;;;;;2.92;1.48;;;25.50;71.50;;;;;;7678198;22;80175;-49
2023/09/23 15:21:45;;;;;;;1.83;1.60;;;25.50;71.40;;;;;;7674291;22;80593;-52
2023/09/23 15:24:46;;;;;;;4.78;1.77;;;25.50;71.10;;;;;;7676624;22;80880;-48
2023/09/23 15:27:46;;;;;;;3.22;1.50;;;25.60;70.40;;;;;;7674290;22;81173;-53
2023/09/23 15:30:47;;;;;;;3.30;1.63;;;25.50;70.40;;;;;;7678694;22;80216;-51
2023/09/23 15:33:47;;;;;;;2.63;1.67;;;25.50;70.30;;;;;;7654521;22;81874;-52
2023/09/23 15:36:48;;;;;;;7.22;1.95;;;25.50;70.30;;;;;;7619202;22;81567;-54